createdAt,value
2022-11-01T00:02:20.008Z,23.38
2022-11-01T00:04:46.638Z,22.65
2022-11-01T00:07:13.191Z,22.48
2022-11-01T00:09:39.762Z,20.80
2022-11-01T00:12:06.614Z,21.30
2022-11-01T00:14:33.174Z,23.40
2022-11-01T00:16:59.810Z,28.40
2022-11-01T00:19:26.386Z,21.95
2022-11-01T00:21:52.941Z,21.48
2022-11-01T00:24:21.991Z,26.48
2022-11-01T00:29:22.563Z,20.65
2022-11-01T00:31:50.022Z,22.25
2022-11-01T00:34:17.173Z,21.45
2022-11-01T00:36:44.122Z,24.83
2022-11-01T00:39:14.486Z,24.58
2022-11-01T00:41:41.186Z,26.45
2022-11-01T00:44:07.707Z,25.37
2022-11-01T00:46:34.637Z,25.90
2022-11-01T00:49:02.280Z,25.42
2022-11-01T00:51:28.859Z,23.92
2022-11-01T00:53:56.025Z,25.27
2022-11-01T00:56:24.493Z,26.45
2022-11-01T00:58:51.099Z,23.52
2022-11-01T01:01:21.923Z,28.65
2022-11-01T01:03:48.566Z,31.33
2022-11-01T01:06:15.144Z,27.58
2022-11-01T01:08:41.792Z,29.30
2022-11-01T01:11:08.334Z,23.60
2022-11-01T01:13:34.862Z,30.70
2022-11-01T01:16:01.488Z,29.05
2022-11-01T01:18:28.469Z,26.48
2022-11-01T01:21:06.627Z,24.42
2022-11-01T01:23:33.332Z,25.80
2022-11-01T01:25:59.929Z,27.87
2022-11-01T01:28:30.653Z,25.40
2022-11-01T01:30:57.194Z,24.45
2022-11-01T01:33:23.727Z,31.65
2022-11-01T01:35:50.612Z,27.20
2022-11-01T01:38:17.285Z,30.30
2022-11-01T01:40:47.815Z,27.15
2022-11-01T01:43:22.969Z,33.53
2022-11-01T01:45:49.533Z,30.70
2022-11-01T01:48:22.529Z,30.65
2022-11-01T01:53:28.761Z,33.20
2022-11-01T01:56:12.759Z,31.58
2022-11-01T01:59:01.604Z,30.98
2022-11-01T02:01:32.187Z,32.80
2022-11-01T02:03:59.070Z,35.75
2022-11-01T02:06:26.551Z,32.90
2022-11-01T02:08:56.940Z,34.58
2022-11-01T02:11:23.659Z,33.17
2022-11-01T02:13:50.601Z,32.03
2022-11-01T02:16:32.571Z,35.25
2022-11-01T02:19:25.025Z,31.20
2022-11-01T02:21:56.578Z,33.93
2022-11-01T02:24:46.394Z,31.83
2022-11-01T02:27:51.705Z,34.08
2022-11-01T02:30:21.470Z,36.28
2022-11-01T02:32:54.695Z,35.35
2022-11-01T02:35:43.466Z,36.83
2022-11-01T02:38:28.263Z,36.90
2022-11-01T02:41:00.050Z,36.45
2022-11-01T02:43:48.468Z,37.88
2022-11-01T02:46:36.505Z,34.10
2022-11-01T02:49:04.304Z,40.83
2022-11-01T02:51:33.011Z,36.83
2022-11-01T02:54:07.987Z,36.85
2022-11-01T02:56:35.677Z,36.70
2022-11-01T02:59:02.528Z,38.72
2022-11-01T03:01:34.510Z,43.17
2022-11-01T03:04:02.278Z,40.93
2022-11-01T03:06:39.908Z,37.03
2022-11-01T03:09:11.430Z,41.10
2022-11-01T03:12:01.832Z,36.20
2022-11-01T03:14:54.664Z,33.92
2022-11-01T03:17:26.426Z,33.15
2022-11-01T03:19:52.939Z,35.95
2022-11-01T03:22:23.579Z,41.83
2022-11-01T03:25:42.954Z,38.40
2022-11-01T03:28:17.414Z,37.97
2022-11-01T03:30:51.951Z,39.40
2022-11-01T03:33:20.501Z,40.90
2022-11-01T03:35:51.811Z,40.60
2022-11-01T03:38:22.969Z,39.53
2022-11-01T03:41:03.490Z,37.38
2022-11-01T03:43:32.581Z,35.97
2022-11-01T03:45:59.168Z,40.78
2022-11-01T03:48:25.940Z,37.30
2022-11-01T03:50:56.214Z,37.95
2022-11-01T03:53:23.311Z,35.33
2022-11-01T03:55:50.185Z,34.65
2022-11-01T03:58:16.995Z,34.13
2022-11-01T04:00:45.084Z,35.25
2022-11-01T04:03:12.564Z,32.00
2022-11-01T04:05:40.843Z,34.78
2022-11-01T04:08:08.769Z,35.13
2022-11-01T04:10:35.442Z,33.33
2022-11-01T04:13:02.811Z,36.10
2022-11-01T04:15:48.396Z,34.05
2022-11-01T04:18:37.544Z,30.70
2022-11-01T04:21:06.741Z,25.92
2022-11-01T04:23:34.328Z,26.60
2022-11-01T04:26:01.935Z,30.08
2022-11-01T04:28:28.811Z,26.92
2022-11-01T04:30:55.706Z,28.52
2022-11-01T04:33:22.304Z,26.45
2022-11-01T04:35:49.086Z,23.12
2022-11-01T04:38:16.174Z,28.05
2022-11-01T04:40:43.466Z,27.17
2022-11-01T04:43:10.846Z,24.00
2022-11-01T04:45:40.878Z,25.88
2022-11-01T04:48:16.920Z,26.83
2022-11-01T04:50:45.531Z,27.23
2022-11-01T04:53:15.178Z,33.15
2022-11-01T04:55:41.742Z,26.58
2022-11-01T04:58:09.835Z,26.33
2022-11-01T05:00:37.447Z,28.90
2022-11-01T05:03:06.938Z,24.17
2022-11-01T05:05:36.956Z,27.10
2022-11-01T05:08:11.666Z,27.85
2022-11-01T05:10:41.556Z,27.45
2022-11-01T05:13:09.474Z,25.10
2022-11-01T05:15:40.208Z,27.55
2022-11-01T05:18:14.628Z,25.20
2022-11-01T05:20:41.170Z,22.45
2022-11-01T05:23:08.986Z,23.83
2022-11-01T05:25:38.070Z,22.95
2022-11-01T05:28:08.167Z,25.23
2022-11-01T05:30:35.719Z,23.58
2022-11-01T05:33:03.625Z,20.08
2022-11-01T05:35:31.074Z,24.25
2022-11-01T05:37:58.170Z,22.05
2022-11-01T05:40:25.194Z,22.37
2022-11-01T05:42:52.196Z,21.52
2022-11-01T05:45:18.832Z,25.45
2022-11-01T05:47:45.438Z,25.58
2022-11-01T05:50:14.089Z,26.77
2022-11-01T05:52:41.132Z,26.95
2022-11-01T05:55:08.702Z,25.55
2022-11-01T05:57:35.776Z,28.40
2022-11-01T06:00:03.506Z,29.67
2022-11-01T06:02:33.945Z,26.95
2022-11-01T06:05:03.052Z,25.33
2022-11-01T06:07:30.128Z,25.55
2022-11-01T06:09:56.782Z,23.85
2022-11-01T06:12:25.120Z,26.20
2022-11-01T06:14:52.108Z,31.52
2022-11-01T06:17:18.766Z,28.98
2022-11-01T06:19:45.458Z,29.15
2022-11-01T06:22:12.029Z,30.42
2022-11-01T06:24:38.604Z,30.65
2022-11-01T06:27:09.820Z,32.58
2022-11-01T06:32:05.222Z,28.83
2022-11-01T06:34:32.294Z,28.15
2022-11-01T06:36:59.435Z,30.77
2022-11-01T06:39:26.447Z,29.58
2022-11-01T06:41:52.992Z,28.67
2022-11-01T06:44:19.557Z,30.20
2022-11-01T06:46:46.117Z,28.48
2022-11-01T06:49:16.420Z,31.77
2022-11-01T06:54:26.201Z,30.55
2022-11-01T06:56:52.790Z,30.65
2022-11-01T06:59:19.602Z,30.48
2022-11-01T07:01:46.264Z,30.10
2022-11-01T07:04:13.147Z,31.73
2022-11-01T07:06:40.039Z,27.65
2022-11-01T07:09:06.681Z,30.65
2022-11-01T07:11:33.771Z,27.02
2022-11-01T07:14:00.331Z,25.27
2022-11-01T07:16:27.508Z,29.58
2022-11-01T07:18:54.369Z,24.55
2022-11-01T07:21:21.128Z,26.65
2022-11-01T07:26:43.212Z,24.63
2022-11-01T07:29:09.732Z,25.95
2022-11-01T07:31:38.837Z,28.83
2022-11-01T07:34:06.053Z,25.45
2022-11-01T07:36:32.882Z,27.08
2022-11-01T07:38:59.429Z,26.25
2022-11-01T07:41:30.383Z,28.80
2022-11-01T07:43:56.990Z,26.75
2022-11-01T07:46:23.773Z,26.73
2022-11-01T07:48:51.407Z,28.00
2022-11-01T07:51:18.512Z,29.33
2022-11-01T07:53:45.073Z,27.65
2022-11-01T07:56:11.688Z,26.35
2022-11-01T07:58:38.505Z,23.67
2022-11-01T08:01:05.164Z,30.15
2022-11-01T08:03:31.783Z,25.10
2022-11-01T08:05:58.336Z,28.15
2022-11-01T08:08:24.872Z,24.87
2022-11-01T08:10:51.432Z,24.48
2022-11-01T08:13:25.234Z,24.00
2022-11-01T08:15:53.248Z,24.48
2022-11-01T08:18:22.687Z,27.10
2022-11-01T08:20:49.865Z,28.80
2022-11-01T08:23:16.926Z,27.85
2022-11-01T08:25:43.744Z,30.75
2022-11-01T08:28:16.101Z,23.27
2022-11-01T08:30:44.204Z,28.02
2022-11-01T08:33:11.515Z,26.02
2022-11-01T08:35:38.223Z,26.45
2022-11-01T08:38:05.146Z,26.98
2022-11-01T08:40:33.137Z,27.95
2022-11-01T08:42:59.905Z,23.60
2022-11-01T08:45:27.690Z,26.37
2022-11-01T08:47:59.357Z,21.60
2022-11-01T08:50:27.720Z,25.75
2022-11-01T08:52:54.503Z,27.20
2022-11-01T08:55:21.806Z,24.20
2022-11-01T08:57:49.040Z,27.08
2022-11-01T09:00:16.806Z,26.87
2022-11-01T09:02:43.360Z,26.45
2022-11-01T09:05:09.924Z,29.70
2022-11-01T09:07:37.587Z,26.90
2022-11-01T09:10:05.005Z,26.05
2022-11-01T09:12:31.848Z,25.92
2022-11-01T09:14:58.438Z,23.20
2022-11-01T09:17:25.081Z,26.58
2022-11-01T09:19:51.663Z,25.33
2022-11-01T09:22:18.198Z,26.92
2022-11-01T09:24:45.213Z,27.85
2022-11-01T09:27:12.342Z,26.75
2022-11-01T09:29:38.930Z,26.98
2022-11-01T09:34:40.723Z,26.58
2022-11-01T09:37:07.265Z,29.80
2022-11-01T09:39:33.820Z,28.00
2022-11-01T09:42:04.745Z,27.17
2022-11-01T09:44:40.438Z,27.42
2022-11-01T09:47:15.295Z,27.02
2022-11-01T09:49:46.387Z,25.17
2022-11-01T09:52:20.295Z,27.15
2022-11-01T09:54:47.322Z,24.23
2022-11-01T09:57:28.782Z,28.48
2022-11-01T10:00:13.522Z,23.90
2022-11-01T10:02:48.529Z,25.05
2022-11-01T10:05:34.146Z,26.58
2022-11-01T10:08:18.874Z,26.92
2022-11-01T10:11:09.911Z,26.35
2022-11-01T10:13:48.683Z,25.17
2022-11-01T10:16:22.163Z,27.83
2022-11-01T10:19:01.065Z,29.55
2022-11-01T10:21:37.064Z,25.33
2022-11-01T10:24:08.075Z,29.12
2022-11-01T10:26:34.782Z,29.95
2022-11-01T10:29:13.040Z,30.12
2022-11-01T10:31:45.412Z,28.70
2022-11-01T10:34:30.795Z,28.87
2022-11-01T10:37:14.316Z,29.58
2022-11-01T10:39:57.933Z,33.08
2022-11-01T10:42:30.600Z,28.30
2022-11-01T10:45:23.135Z,27.50
2022-11-01T10:47:55.477Z,29.07
2022-11-01T10:50:25.704Z,26.70
2022-11-01T10:52:56.999Z,28.00
2022-11-01T10:55:38.654Z,27.15
2022-11-01T10:58:13.448Z,29.90
2022-11-01T11:00:42.359Z,27.65
2022-11-01T11:03:31.138Z,29.50
2022-11-01T11:06:04.818Z,25.90
2022-11-01T11:08:32.787Z,30.33
2022-11-01T11:11:04.180Z,26.70
2022-11-01T11:13:31.703Z,29.20
2022-11-01T11:16:06.516Z,26.15
2022-11-01T11:18:38.906Z,27.48
2022-11-01T11:21:11.746Z,28.48
2022-11-01T11:26:22.879Z,28.85
2022-11-01T11:28:53.545Z,32.88
2022-11-01T11:31:31.542Z,27.67
2022-11-01T11:34:20.084Z,26.60
2022-11-01T11:36:53.760Z,30.80
2022-11-01T11:39:29.477Z,31.27
2022-11-01T11:42:19.153Z,27.98
2022-11-01T11:44:55.399Z,30.30
2022-11-01T11:47:29.108Z,29.10
2022-11-01T11:49:58.360Z,29.17
2022-11-01T11:52:38.554Z,30.92
2022-11-01T11:55:25.917Z,32.03
2022-11-01T11:57:54.895Z,27.15
2022-11-01T12:00:24.029Z,30.50
2022-11-01T12:02:50.957Z,31.80
2022-11-01T12:05:20.084Z,32.42
2022-11-01T12:07:49.860Z,27.50
2022-11-01T12:10:34.152Z,27.85
2022-11-01T12:13:33.517Z,29.92
2022-11-01T12:16:23.972Z,30.60
2022-11-01T12:19:27.552Z,32.72
2022-11-01T12:21:57.028Z,31.20
2022-11-01T12:24:32.543Z,28.98
2022-11-01T12:27:07.157Z,29.60
2022-11-01T12:29:39.036Z,32.80
2022-11-01T12:32:19.692Z,29.80
2022-11-01T12:34:49.074Z,29.45
2022-11-01T12:37:32.406Z,29.80
2022-11-01T12:40:21.188Z,28.90
2022-11-01T12:42:52.019Z,27.70
2022-11-01T12:45:47.237Z,29.52
2022-11-01T12:48:28.818Z,28.87
2022-11-01T12:51:11.033Z,30.45
2022-11-01T12:54:12.285Z,29.60
2022-11-01T12:56:39.937Z,26.12
2022-11-01T12:59:10.397Z,25.17
2022-11-01T13:01:54.614Z,26.23
2022-11-01T13:04:31.399Z,27.62
2022-11-01T13:07:23.107Z,26.58
2022-11-01T13:10:18.411Z,25.52
2022-11-01T13:12:50.715Z,28.10
2022-11-01T13:15:28.136Z,26.37
2022-11-01T13:18:10.094Z,26.50
2022-11-01T13:21:05.708Z,23.50
2022-11-01T13:23:37.493Z,28.42
2022-11-01T13:26:22.198Z,26.98
2022-11-01T13:29:01.028Z,28.73
2022-11-01T13:31:48.658Z,27.62
2022-11-01T13:34:40.664Z,26.70
2022-11-01T13:37:22.136Z,25.30
2022-11-01T13:40:28.037Z,25.83
2022-11-01T13:43:05.191Z,30.17
2022-11-01T13:45:43.831Z,24.83
2022-11-01T13:48:59.937Z,24.37
2022-11-01T13:51:34.434Z,24.90
2022-11-01T13:54:11.517Z,22.95
2022-11-01T13:56:54.172Z,23.90
2022-11-01T13:59:45.142Z,23.05
2022-11-01T14:02:24.032Z,22.55
2022-11-01T14:05:13.623Z,24.37
2022-11-01T14:07:45.738Z,24.25
2022-11-01T14:10:17.968Z,24.00
2022-11-01T14:12:57.600Z,25.10
2022-11-01T14:15:26.859Z,25.90
2022-11-01T14:17:55.181Z,23.62
2022-11-01T14:20:33.790Z,27.05
2022-11-01T14:23:29.055Z,24.75
2022-11-01T14:26:21.041Z,24.12
2022-11-01T14:28:58.959Z,28.90
2022-11-01T14:31:28.382Z,24.52
2022-11-01T14:33:59.953Z,27.42
2022-11-01T14:36:31.304Z,26.10
2022-11-01T14:39:08.939Z,29.73
2022-11-01T14:41:40.596Z,28.02
2022-11-01T14:44:29.849Z,26.35
2022-11-01T14:47:00.861Z,25.55
2022-11-01T14:49:40.099Z,31.27
2022-11-01T14:52:21.943Z,27.05
2022-11-01T14:55:00.570Z,26.73
2022-11-01T14:57:32.550Z,27.13
2022-11-01T14:59:59.890Z,25.03
2022-11-01T15:02:28.385Z,29.85
2022-11-01T15:05:00.058Z,23.58
2022-11-01T15:07:31.169Z,25.48
2022-11-01T15:10:04.629Z,29.27
2022-11-01T15:12:35.325Z,27.80
2022-11-01T15:15:02.873Z,29.87
2022-11-01T15:17:33.431Z,28.80
2022-11-01T15:20:04.112Z,26.90
2022-11-01T15:22:33.612Z,31.80
2022-11-01T15:25:05.803Z,32.45
2022-11-01T15:27:38.801Z,32.55
2022-11-01T15:30:06.549Z,26.00
2022-11-01T15:32:35.083Z,31.75
2022-11-01T15:35:05.956Z,31.48
2022-11-01T15:37:33.674Z,27.42
2022-11-01T15:40:01.663Z,28.60
2022-11-01T15:42:33.780Z,28.48
2022-11-01T15:45:26.655Z,28.35
2022-11-01T15:47:53.912Z,28.95
2022-11-01T15:50:20.827Z,30.70
2022-11-01T15:52:47.490Z,30.73
2022-11-01T15:55:21.246Z,30.52
2022-11-01T15:57:56.579Z,30.73
2022-11-01T16:00:27.662Z,41.40
2022-11-01T16:03:04.354Z,35.63
2022-11-01T16:05:56.928Z,38.20
2022-11-01T16:08:29.363Z,37.55
2022-11-01T16:10:56.346Z,35.90
2022-11-01T16:13:23.426Z,32.92
2022-11-01T16:16:07.866Z,33.60
2022-11-01T16:18:40.045Z,30.65
2022-11-01T16:21:18.416Z,31.40
2022-11-01T16:24:04.007Z,29.05
2022-11-01T16:26:33.496Z,31.67
2022-11-01T16:29:00.073Z,36.25
2022-11-01T16:31:29.356Z,32.10
2022-11-01T16:33:57.413Z,35.53
2022-11-01T16:36:36.438Z,33.83
2022-11-01T16:39:24.338Z,37.15
2022-11-01T16:41:52.294Z,35.15
2022-11-01T16:44:19.213Z,31.20
2022-11-01T16:46:45.942Z,32.67
2022-11-01T16:49:15.493Z,36.53
2022-11-01T16:51:45.363Z,38.17
2022-11-01T16:54:12.822Z,35.72
2022-11-01T16:56:58.687Z,36.42
2022-11-01T16:59:34.373Z,31.45
2022-11-01T17:02:11.461Z,32.45
2022-11-01T17:04:39.674Z,31.70
2022-11-01T17:07:06.774Z,32.58
2022-11-01T17:09:34.537Z,34.33
2022-11-01T17:12:01.060Z,32.13
2022-11-01T17:14:27.714Z,32.45
2022-11-01T17:16:56.290Z,33.72
2022-11-01T17:19:33.096Z,35.42
2022-11-01T17:22:21.322Z,38.35
2022-11-01T17:24:48.113Z,40.15
2022-11-01T17:27:15.690Z,41.88
2022-11-01T17:29:43.097Z,42.58
2022-11-01T17:32:11.306Z,43.30
2022-11-01T17:34:56.700Z,40.08
2022-11-01T17:37:25.754Z,42.50
2022-11-01T17:39:53.840Z,44.40
2022-11-01T17:42:20.728Z,40.72
2022-11-01T17:44:47.258Z,38.20
2022-11-01T17:47:14.658Z,47.70
2022-11-01T17:53:09.114Z,47.83
2022-11-01T17:55:36.985Z,45.70
2022-11-01T17:58:04.605Z,48.40
2022-11-01T18:00:31.764Z,50.92
2022-11-01T18:02:58.618Z,46.92
2022-11-01T18:05:34.135Z,52.45
2022-11-01T19:08:24.973Z,48.87
2022-11-01T19:10:53.448Z,47.67
2022-11-01T19:13:34.310Z,46.22
2022-11-01T19:16:05.961Z,48.33
2022-11-01T19:18:32.553Z,47.05
2022-11-01T19:21:00.639Z,43.13
2022-11-01T19:23:42.037Z,47.45
2022-11-01T19:26:19.168Z,49.55
2022-11-01T19:28:45.752Z,51.58
2022-11-01T19:31:39.910Z,44.83
2022-11-01T19:34:16.874Z,41.25
2022-11-01T19:36:44.510Z,38.40
2022-11-01T20:04:38.190Z,30.55
2022-11-01T20:18:40.372Z,24.45
2022-11-01T20:26:44.494Z,29.10
2022-11-01T20:40:19.636Z,23.40
2022-11-01T20:43:06.665Z,25.15
2022-11-01T20:45:36.938Z,26.17
2022-11-01T20:48:04.290Z,24.45
2022-11-01T20:50:30.974Z,28.65
2022-11-01T20:55:39.378Z,21.77
2022-11-01T21:45:35.539Z,22.27
2022-11-01T21:48:19.639Z,22.17
2022-11-01T21:58:31.886Z,19.10
2022-11-01T22:01:00.416Z,19.73
2022-11-01T22:03:26.963Z,17.33
2022-11-01T22:05:53.517Z,19.65
2022-11-01T22:08:20.055Z,17.27
2022-11-01T22:10:46.646Z,19.90
2022-11-01T22:13:13.739Z,18.52
2022-11-01T22:15:40.426Z,18.15
2022-11-01T22:18:17.223Z,21.00
2022-11-01T22:20:45.432Z,21.20
2022-11-01T22:23:11.968Z,20.37
2022-11-01T22:36:40.534Z,18.17
2022-11-01T22:39:25.232Z,19.75
2022-11-01T22:41:52.170Z,21.12
2022-11-01T22:44:25.441Z,19.30
2022-11-01T22:47:02.791Z,19.37
2022-11-01T22:53:04.816Z,16.65
2022-11-01T22:55:32.294Z,19.25
2022-11-01T22:58:12.566Z,18.67
2022-11-01T23:00:39.398Z,16.55
2022-11-01T23:03:21.239Z,19.42
2022-11-01T23:05:52.606Z,20.85
2022-11-01T23:08:37.093Z,18.00
2022-11-01T23:11:04.576Z,18.55
2022-11-01T23:13:52.112Z,19.30
2022-11-01T23:16:24.867Z,16.73
2022-11-01T23:18:54.274Z,16.98
2022-11-01T23:21:22.435Z,18.90
2022-11-01T23:23:49.105Z,20.08
2022-11-01T23:26:17.692Z,19.23
2022-11-01T23:28:51.660Z,18.58
2022-11-01T23:31:18.760Z,16.20
2022-11-01T23:33:47.340Z,18.55
2022-11-01T23:36:23.314Z,20.55
2022-11-01T23:38:54.869Z,23.25
2022-11-01T23:41:25.692Z,18.17
2022-11-01T23:43:55.056Z,21.42
2022-11-01T23:46:21.695Z,17.83
2022-11-01T23:48:48.562Z,20.85
2022-11-01T23:51:19.980Z,21.42
2022-11-01T23:54:02.350Z,21.35
2022-11-01T23:56:29.128Z,17.80
2022-11-01T23:59:00.442Z,17.55
